Decoded Metar for KHRT (MARY ESTHER in FL, USA) (IATA:HRT) | Meteo·Mobile Aviation Weather
aviador You're here:

KHRT Decoded Metar

MARY ESTHER in FL, USA
Report Time2018-08-17 00:56:00
UTC Time2018-08-17 01:29:01
Flight Rules vfr VFR
Wind170° at 08 kt
W.Decomp.*RWY 18: 7.9 kt HW 1.4 kt LCW
W.Rank170° ranks 11
Current wind is below 170° avg. (8.3)
Visibility9999 m
Phenomena:N/A
Clouds:N/A
Expected CloudBase > 2,800 ft AGL from Temp-Dew spread
CeilingNone
Temp28°C (ISA +13)
Dew Point21°C (66% RH)
Heat Index30.2°C
QNH1020 hPa
Density Alt1,637 ft
Elevation39 ft
Report Wrong Elevation
Raw Report
KHRT 170056Z 17008KT 10SM CLR 28/21 A3011 RMK AO2A SLP198
T02780211 $=

Extra information for KHRT:More info

Metar Taf Metar & Taf Last 4 Metars F.Rules Stats Wind Profile Meteogram Temp Stats Airport Information Weather charts Add Link Nearby VenuesMetar ALERT Operation Metar Decoded Social comments

AIRNAV info for KHRT